createdAt,value
2024-01-28T00:00:12.685Z,77.75
2024-01-28T00:00:44.754Z,78.04
2024-01-28T00:01:16.861Z,77.62
2024-01-28T00:01:48.858Z,77.32
2024-01-28T00:02:21.574Z,77.94
2024-01-28T00:02:53.700Z,77.32
2024-01-28T00:03:25.549Z,77.70
2024-01-28T00:03:57.604Z,77.62
2024-01-28T00:04:29.613Z,78.24
2024-01-28T00:05:01.524Z,77.32
2024-01-28T00:05:33.550Z,77.66
2024-01-28T00:06:05.915Z,77.56
2024-01-28T00:06:37.904Z,78.45
2024-01-28T00:07:09.764Z,78.00
2024-01-28T00:07:41.587Z,78.20
2024-01-28T00:08:13.398Z,77.63
2024-01-28T00:08:45.341Z,77.77
2024-01-28T00:09:17.215Z,77.93
2024-01-28T00:09:49.184Z,78.57
2024-01-28T00:10:21.024Z,78.05
2024-01-28T00:10:54.023Z,77.89
2024-01-28T00:11:25.853Z,77.72
2024-01-28T00:11:57.630Z,78.26
2024-01-28T00:12:29.454Z,77.88
2024-01-28T00:13:01.280Z,77.93
2024-01-28T00:13:35.689Z,77.87
2024-01-28T00:14:07.620Z,78.20
2024-01-28T00:14:39.532Z,77.37
2024-01-28T00:15:12.212Z,78.15
2024-01-28T00:15:45.258Z,77.36
2024-01-28T00:16:18.214Z,77.81
2024-01-28T00:16:51.050Z,77.72
2024-01-28T00:17:22.873Z,78.10
2024-01-28T00:17:57.826Z,78.42
2024-01-28T00:18:31.179Z,78.49
2024-01-28T00:19:03.241Z,78.04
2024-01-28T00:19:35.244Z,78.22
2024-01-28T00:20:07.598Z,78.08
2024-01-28T00:20:39.454Z,78.08
2024-01-28T00:21:11.272Z,78.41
2024-01-28T00:21:43.298Z,78.96
2024-01-28T00:22:15.185Z,78.11
2024-01-28T00:22:47.016Z,78.44
2024-01-28T00:23:18.978Z,78.12
2024-01-28T00:23:50.805Z,78.23
2024-01-28T00:24:24.859Z,78.55
2024-01-28T00:24:56.902Z,78.63
2024-01-28T00:25:28.744Z,78.90
2024-01-28T00:26:03.069Z,78.88
2024-01-28T00:26:42.046Z,78.95
2024-01-28T00:27:13.943Z,78.79
2024-01-28T00:27:46.009Z,78.99
2024-01-28T00:28:17.867Z,78.90
2024-01-28T00:28:49.686Z,78.80
2024-01-28T00:29:27.775Z,78.72
2024-01-28T00:29:59.617Z,79.02
2024-01-28T00:30:33.563Z,79.47
2024-01-28T00:31:11.793Z,79.17
2024-01-28T00:31:43.601Z,79.33
2024-01-28T00:32:15.479Z,78.73
2024-01-28T00:32:47.383Z,78.65
2024-01-28T00:33:19.329Z,79.05
2024-01-28T00:33:51.366Z,78.48
2024-01-28T00:34:23.726Z,78.78
2024-01-28T00:34:57.201Z,78.71
2024-01-28T00:35:29.063Z,79.12
2024-01-28T00:36:01.024Z,79.34
2024-01-28T00:36:32.942Z,79.43
2024-01-28T00:37:04.858Z,79.17
2024-01-28T00:37:36.824Z,79.38
2024-01-28T00:38:08.692Z,78.90
2024-01-28T00:38:40.489Z,79.59
2024-01-28T00:39:14.784Z,78.96
2024-01-28T00:39:46.780Z,79.39
2024-01-28T00:40:18.910Z,79.17
2024-01-28T00:40:50.677Z,79.24
2024-01-28T00:41:30.949Z,78.68
2024-01-28T00:42:06.454Z,79.12
2024-01-28T00:42:38.361Z,79.30
2024-01-28T00:43:10.220Z,79.24
2024-01-28T00:43:41.998Z,79.13
2024-01-28T00:44:13.769Z,79.14
2024-01-28T00:44:45.574Z,79.22
2024-01-28T00:45:17.391Z,79.65
2024-01-28T00:45:49.367Z,79.30
2024-01-28T00:46:23.158Z,78.97
2024-01-28T00:46:56.366Z,79.50
2024-01-28T00:47:28.346Z,79.04
2024-01-28T00:48:00.428Z,79.33
2024-01-28T00:48:32.764Z,79.59
2024-01-28T00:49:05.001Z,79.83
2024-01-28T00:49:37.458Z,79.35
2024-01-28T00:50:10.048Z,79.13
2024-01-28T00:51:14.392Z,79.28
2024-01-28T00:51:46.240Z,79.65
2024-01-28T00:52:18.113Z,79.14
2024-01-28T00:52:50.286Z,79.84
2024-01-28T00:53:22.969Z,79.62
2024-01-28T00:53:54.887Z,79.70
2024-01-28T00:54:26.832Z,80.09
2024-01-28T00:54:58.749Z,79.71
2024-01-28T00:55:32.379Z,79.92
2024-01-28T00:56:04.388Z,79.63
2024-01-28T00:56:36.162Z,79.42
2024-01-28T00:57:08.129Z,79.53
2024-01-28T00:57:40.154Z,79.22
2024-01-28T00:58:13.537Z,79.55
2024-01-28T00:58:46.506Z,79.50
2024-01-28T00:59:18.364Z,79.44
2024-01-28T00:59:50.203Z,79.06
2024-01-28T01:00:22.168Z,79.45
2024-01-28T01:00:54.052Z,79.70
2024-01-28T01:01:25.946Z,79.95
2024-01-28T01:01:57.816Z,79.54
2024-01-28T01:02:29.586Z,79.47
2024-01-28T01:03:01.874Z,79.35
2024-01-28T01:03:33.788Z,79.48
2024-01-28T01:04:05.837Z,79.49
2024-01-28T01:04:37.897Z,79.31
2024-01-28T01:05:09.786Z,79.51
2024-01-28T01:05:43.207Z,79.66
2024-01-28T01:06:15.304Z,79.62
2024-01-28T01:06:47.297Z,79.54
2024-01-28T01:07:19.246Z,79.63
2024-01-28T01:07:51.031Z,80.02
2024-01-28T01:08:22.820Z,80.05
2024-01-28T01:08:54.655Z,79.51
2024-01-28T01:09:26.823Z,79.87
2024-01-28T01:09:58.651Z,79.63
2024-01-28T01:10:30.513Z,79.75
2024-01-28T01:11:04.857Z,79.96
2024-01-28T01:11:36.747Z,79.51
2024-01-28T01:12:08.682Z,79.47
2024-01-28T01:12:40.615Z,79.39
2024-01-28T01:13:12.419Z,79.70
2024-01-28T01:13:44.327Z,79.32
2024-01-28T01:14:16.221Z,79.46
2024-01-28T01:14:48.087Z,79.21
2024-01-28T01:15:19.982Z,78.96
2024-01-28T01:15:51.840Z,79.38
2024-01-28T01:16:23.710Z,79.46
2024-01-28T01:16:55.471Z,79.59
2024-01-28T01:17:27.362Z,79.20
2024-01-28T01:17:59.956Z,79.47
2024-01-28T01:18:31.939Z,78.87
2024-01-28T01:19:03.967Z,79.14
2024-01-28T01:19:35.998Z,79.42
2024-01-28T01:20:08.591Z,79.44
2024-01-28T01:20:40.406Z,79.43
2024-01-28T01:21:12.354Z,79.16
2024-01-28T01:21:44.444Z,79.27
2024-01-28T01:22:16.356Z,79.25
2024-01-28T01:22:48.132Z,78.81
2024-01-28T01:23:20.028Z,78.86
2024-01-28T01:23:51.926Z,79.23
2024-01-28T01:24:24.359Z,79.56
2024-01-28T01:24:56.245Z,78.88
2024-01-28T01:25:28.073Z,78.84
2024-01-28T01:25:59.850Z,78.68
2024-01-28T01:26:32.244Z,79.13
2024-01-28T01:27:04.228Z,79.37
2024-01-28T01:27:36.182Z,79.25
2024-01-28T01:28:08.056Z,79.09
2024-01-28T01:28:39.912Z,79.25
2024-01-28T01:29:11.795Z,79.13
2024-01-28T01:29:43.619Z,78.82
2024-01-28T01:30:16.148Z,79.26
2024-01-28T01:30:48.143Z,78.83
2024-01-28T01:31:20.076Z,78.64
2024-01-28T01:31:52.102Z,78.77
2024-01-28T01:32:23.939Z,78.79
2024-01-28T01:32:55.837Z,78.70
2024-01-28T01:33:28.033Z,78.77
2024-01-28T01:34:00.130Z,78.96
2024-01-28T01:34:32.159Z,78.45
2024-01-28T01:35:04.470Z,78.54
2024-01-28T01:35:37.278Z,78.79
2024-01-28T01:36:09.251Z,78.92
2024-01-28T01:36:44.842Z,78.31
2024-01-28T01:37:16.935Z,78.51
2024-01-28T01:37:49.505Z,78.99
2024-01-28T01:38:21.466Z,78.60
2024-01-28T01:38:53.278Z,79.34
2024-01-28T01:39:25.228Z,79.20
2024-01-28T01:39:57.295Z,78.79
2024-01-28T01:40:29.116Z,78.98
2024-01-28T01:41:00.969Z,78.54
2024-01-28T01:41:32.830Z,78.58
2024-01-28T01:42:04.707Z,79.42
2024-01-28T01:42:36.606Z,79.09
2024-01-28T01:43:11.349Z,79.24
2024-01-28T01:43:43.157Z,79.04
2024-01-28T01:44:15.004Z,79.03
2024-01-28T01:44:46.912Z,79.25
2024-01-28T01:45:18.989Z,78.72
2024-01-28T01:45:51.030Z,79.02
2024-01-28T01:46:23.494Z,78.94
2024-01-28T01:46:55.390Z,78.63
2024-01-28T01:47:29.149Z,78.93
2024-01-28T01:48:01.298Z,79.08
2024-01-28T01:48:33.388Z,79.42
2024-01-28T01:49:05.580Z,78.96
2024-01-28T01:49:38.238Z,78.49
2024-01-28T01:50:12.180Z,78.98
2024-01-28T01:50:44.890Z,78.68
2024-01-28T01:51:17.591Z,79.08
2024-01-28T01:51:50.130Z,79.02
2024-01-28T01:52:22.644Z,79.40
2024-01-28T01:52:54.607Z,78.81
2024-01-28T01:53:26.424Z,79.27
2024-01-28T01:53:58.776Z,78.81
2024-01-28T01:54:31.006Z,78.93
2024-01-28T01:55:02.996Z,78.74
2024-01-28T01:55:36.302Z,78.95
2024-01-28T01:56:08.678Z,79.04
2024-01-28T01:56:40.795Z,78.92
2024-01-28T01:57:13.679Z,79.18
2024-01-28T01:57:45.902Z,79.20
2024-01-28T01:58:18.221Z,79.50
2024-01-28T01:58:50.692Z,79.43
2024-01-28T01:59:22.651Z,79.64
2024-01-28T01:59:55.081Z,79.23
2024-01-28T02:00:27.472Z,79.34
2024-01-28T02:01:00.856Z,78.97
2024-01-28T02:01:35.530Z,79.21
2024-01-28T02:02:11.125Z,79.48
2024-01-28T02:02:47.161Z,78.67
2024-01-28T02:03:19.333Z,79.50
2024-01-28T02:03:53.119Z,79.00
2024-01-28T02:04:25.330Z,79.18
2024-01-28T02:04:58.218Z,79.17
2024-01-28T02:05:30.739Z,79.03
2024-01-28T02:06:02.667Z,79.44
2024-01-28T02:06:34.461Z,79.78
2024-01-28T02:07:08.032Z,79.60
2024-01-28T02:07:40.004Z,78.98
2024-01-28T02:08:11.842Z,78.94
2024-01-28T02:08:43.683Z,79.00
2024-01-28T02:09:15.688Z,79.12
2024-01-28T02:09:47.624Z,79.57
2024-01-28T02:10:23.163Z,79.27
2024-01-28T02:10:55.334Z,78.84
2024-01-28T02:11:28.130Z,78.96
2024-01-28T02:11:59.999Z,78.75
2024-01-28T02:12:32.522Z,78.73
2024-01-28T02:13:04.385Z,79.75
2024-01-28T02:13:36.175Z,79.21
2024-01-28T02:14:07.990Z,78.99
2024-01-28T02:14:41.103Z,79.27
2024-01-28T02:15:13.183Z,79.55
2024-01-28T02:15:45.184Z,79.97
2024-01-28T02:16:17.157Z,79.42
2024-01-28T02:16:51.910Z,79.98
2024-01-28T02:17:23.757Z,79.69
2024-01-28T02:17:56.814Z,79.89
2024-01-28T02:18:29.087Z,79.47
2024-01-28T02:19:01.157Z,79.83
2024-01-28T02:19:33.156Z,79.68
2024-01-28T02:20:05.789Z,79.93
2024-01-28T02:20:37.562Z,80.40
2024-01-28T02:21:09.430Z,79.93
2024-01-28T02:21:41.345Z,79.54
2024-01-28T02:22:15.160Z,80.42
2024-01-28T02:22:47.109Z,80.18
2024-01-28T02:23:24.823Z,79.74
2024-01-28T02:23:56.813Z,80.19
2024-01-28T02:24:28.636Z,80.55
2024-01-28T02:25:00.463Z,80.68
2024-01-28T02:25:33.015Z,80.59
2024-01-28T02:26:04.945Z,80.56
2024-01-28T02:26:36.810Z,80.46
2024-01-28T02:27:08.636Z,80.53
2024-01-28T02:27:42.074Z,80.52
2024-01-28T02:28:14.036Z,80.64
2024-01-28T02:28:45.808Z,80.30
2024-01-28T02:29:17.649Z,80.42
2024-01-28T02:29:49.691Z,81.02
2024-01-28T02:30:21.546Z,80.64
2024-01-28T02:30:53.465Z,80.66
2024-01-28T02:31:25.437Z,80.99
2024-01-28T02:31:57.293Z,80.72
2024-01-28T02:32:29.308Z,80.45
2024-01-28T02:33:01.539Z,80.63
2024-01-28T02:33:33.550Z,81.04
2024-01-28T02:34:05.576Z,80.93
2024-01-28T02:34:37.557Z,80.96
2024-01-28T02:35:09.541Z,81.38
2024-01-28T02:35:41.355Z,80.84
2024-01-28T02:36:13.197Z,80.75
2024-01-28T02:36:45.261Z,80.63
2024-01-28T02:37:17.295Z,81.36
2024-01-28T02:37:49.224Z,80.90
2024-01-28T02:38:21.255Z,81.19
2024-01-28T02:38:53.096Z,81.25
2024-01-28T02:39:25.037Z,81.16
2024-01-28T02:39:56.844Z,81.41
2024-01-28T02:40:28.713Z,82.03
2024-01-28T02:41:00.578Z,81.69
2024-01-28T02:41:32.442Z,81.65
2024-01-28T02:42:04.667Z,81.86
2024-01-28T02:42:36.872Z,81.78
2024-01-28T02:43:09.044Z,81.58
2024-01-28T02:43:40.890Z,81.82
2024-01-28T02:44:12.763Z,82.32
2024-01-28T02:44:44.568Z,81.86
2024-01-28T02:45:16.671Z,81.87
2024-01-28T02:45:48.569Z,81.90
2024-01-28T02:46:20.375Z,81.93
2024-01-28T02:46:52.188Z,82.28
2024-01-28T02:47:24.062Z,82.16
2024-01-28T02:47:55.949Z,81.78
2024-01-28T02:48:27.951Z,81.49
2024-01-28T02:48:59.853Z,81.34
2024-01-28T02:49:31.831Z,81.83
2024-01-28T02:50:03.875Z,81.45
2024-01-28T02:50:35.744Z,81.70
2024-01-28T02:51:07.940Z,81.42
2024-01-28T02:51:39.890Z,81.47
2024-01-28T02:52:11.783Z,81.43
2024-01-28T02:52:43.595Z,81.42
2024-01-28T02:53:15.891Z,81.52
2024-01-28T02:53:47.718Z,81.04
2024-01-28T02:54:19.640Z,80.94
2024-01-28T02:54:51.691Z,81.20
2024-01-28T02:55:24.254Z,80.75
2024-01-28T02:56:01.091Z,80.25
2024-01-28T02:56:33.028Z,80.89
2024-01-28T02:57:04.941Z,80.26
2024-01-28T02:57:36.858Z,80.50
2024-01-28T02:58:08.694Z,80.34
2024-01-28T02:58:40.538Z,80.61
2024-01-28T02:59:12.426Z,80.79
2024-01-28T02:59:44.319Z,80.37
2024-01-28T03:00:16.803Z,80.40
2024-01-28T03:00:48.764Z,80.34
2024-01-28T03:01:21.061Z,80.12
2024-01-28T03:01:52.825Z,80.42
2024-01-28T03:02:25.088Z,80.56
2024-01-28T03:02:56.885Z,80.52
2024-01-28T03:03:29.299Z,80.51
2024-01-28T03:04:01.745Z,80.85
2024-01-28T03:04:39.810Z,80.95
2024-01-28T03:05:12.593Z,79.96
2024-01-28T03:05:44.572Z,80.43
2024-01-28T03:06:16.520Z,80.38
2024-01-28T03:06:48.395Z,79.96
2024-01-28T03:07:20.393Z,80.41
2024-01-28T03:07:52.307Z,80.63
2024-01-28T03:08:24.129Z,80.53
2024-01-28T03:08:55.990Z,80.49
2024-01-28T03:09:27.876Z,80.28
2024-01-28T03:09:59.668Z,80.47
2024-01-28T03:10:32.873Z,80.29
2024-01-28T03:11:04.764Z,80.38
2024-01-28T03:11:37.337Z,80.73
2024-01-28T03:12:09.219Z,80.24
2024-01-28T03:12:41.117Z,80.34
2024-01-28T03:13:12.940Z,81.08
2024-01-28T03:13:44.809Z,80.76
2024-01-28T03:14:16.691Z,80.75
2024-01-28T03:14:48.513Z,80.74
2024-01-28T03:15:20.956Z,80.27
2024-01-28T03:15:56.321Z,80.64
2024-01-28T03:16:28.163Z,80.23
2024-01-28T03:16:59.963Z,80.96
2024-01-28T03:17:31.801Z,80.97
2024-01-28T03:18:03.747Z,80.38
2024-01-28T03:18:35.668Z,81.42
2024-01-28T03:19:07.591Z,81.04
2024-01-28T03:19:39.441Z,80.84
2024-01-28T03:20:11.479Z,81.05
2024-01-28T03:20:43.320Z,81.04
2024-01-28T03:21:15.159Z,80.99
2024-01-28T03:21:46.974Z,80.94
2024-01-28T03:22:18.844Z,80.83
2024-01-28T03:22:50.753Z,80.91
2024-01-28T03:23:22.739Z,80.72
2024-01-28T03:23:54.558Z,81.16
2024-01-28T03:24:26.447Z,81.08
2024-01-28T03:24:58.312Z,81.19
2024-01-28T03:25:30.084Z,81.05
2024-01-28T03:26:01.840Z,80.97
2024-01-28T03:26:35.575Z,81.21
2024-01-28T03:27:07.675Z,81.54
2024-01-28T03:27:39.802Z,81.21
2024-01-28T03:28:11.866Z,81.30
2024-01-28T03:28:43.799Z,81.78
2024-01-28T03:29:16.473Z,81.13
2024-01-28T03:29:48.262Z,81.56
2024-01-28T03:30:20.379Z,81.76
2024-01-28T03:30:54.318Z,81.08
2024-01-28T03:31:27.169Z,80.93
2024-01-28T03:31:59.152Z,81.06
2024-01-28T03:32:30.989Z,81.40
2024-01-28T03:33:02.944Z,81.12
2024-01-28T03:33:35.595Z,81.59
2024-01-28T03:34:08.076Z,81.67
2024-01-28T03:34:40.180Z,81.66
2024-01-28T03:35:12.108Z,81.44
2024-01-28T03:35:43.963Z,81.34
2024-01-28T03:36:15.757Z,81.82
2024-01-28T03:36:47.649Z,81.23
2024-01-28T03:37:19.529Z,81.61
2024-01-28T03:37:51.400Z,81.30
2024-01-28T03:38:23.552Z,81.66
2024-01-28T03:38:55.689Z,81.72
2024-01-28T03:39:28.909Z,81.38
2024-01-28T03:40:00.803Z,81.73
2024-01-28T03:40:32.673Z,81.68
2024-01-28T03:41:04.951Z,81.99
2024-01-28T03:41:36.880Z,81.65
2024-01-28T03:42:08.824Z,81.25
2024-01-28T03:42:40.723Z,81.55
2024-01-28T03:43:12.649Z,81.75
2024-01-28T03:43:44.488Z,81.65
2024-01-28T03:44:21.776Z,81.33
2024-01-28T03:44:53.664Z,81.50
2024-01-28T03:45:25.735Z,81.50
2024-01-28T03:45:57.620Z,81.42
2024-01-28T03:46:29.674Z,81.56
2024-01-28T03:47:01.508Z,81.47
2024-01-28T03:47:33.722Z,81.44
2024-01-28T03:48:06.129Z,81.26
2024-01-28T03:48:38.153Z,81.35
2024-01-28T03:49:10.190Z,81.37
2024-01-28T03:49:42.183Z,81.01
2024-01-28T03:50:13.976Z,81.79
2024-01-28T03:50:45.770Z,81.36
2024-01-28T03:51:17.848Z,80.93
2024-01-28T03:51:49.900Z,80.96
2024-01-28T03:52:21.923Z,81.05
2024-01-28T03:52:53.742Z,81.25
2024-01-28T03:53:25.612Z,81.20
2024-01-28T03:53:58.990Z,81.09
2024-01-28T03:54:32.310Z,81.38
2024-01-28T03:55:04.379Z,81.33
2024-01-28T03:55:36.142Z,81.64
2024-01-28T03:56:07.951Z,81.98
2024-01-28T03:56:41.367Z,81.53
2024-01-28T03:57:13.173Z,82.01
2024-01-28T03:57:46.236Z,81.88
2024-01-28T03:58:18.030Z,82.08
2024-01-28T03:58:49.800Z,82.16
2024-01-28T03:59:21.692Z,82.09
2024-01-28T03:59:53.592Z,81.97
2024-01-28T04:00:30.183Z,82.38
2024-01-28T04:01:02.378Z,82.61
2024-01-28T04:01:35.170Z,82.50
2024-01-28T04:02:08.872Z,82.31
2024-01-28T04:02:41.319Z,82.48
2024-01-28T04:03:13.182Z,82.56
2024-01-28T04:03:45.082Z,82.63
2024-01-28T04:04:16.978Z,83.05
2024-01-28T04:04:48.857Z,82.64
2024-01-28T04:05:20.662Z,82.99
2024-01-28T04:05:52.626Z,83.32
2024-01-28T04:06:25.199Z,83.20
2024-01-28T04:06:57.241Z,83.14
2024-01-28T04:07:29.314Z,82.64
2024-01-28T04:08:02.195Z,83.49
2024-01-28T04:08:34.088Z,83.71
2024-01-28T04:09:05.881Z,83.66
2024-01-28T04:09:40.927Z,83.84
2024-01-28T04:10:16.685Z,83.38
2024-01-28T04:10:48.504Z,84.21
2024-01-28T04:11:20.358Z,83.91
2024-01-28T04:11:52.212Z,83.41
2024-01-28T04:12:24.361Z,83.69
2024-01-28T04:12:56.297Z,83.65
2024-01-28T04:13:28.158Z,83.97
2024-01-28T04:14:00.035Z,84.27
2024-01-28T04:14:32.227Z,84.55
2024-01-28T04:15:04.428Z,84.58
2024-01-28T04:15:36.483Z,84.67
2024-01-28T04:16:10.976Z,84.60
2024-01-28T04:16:42.978Z,84.73
2024-01-28T04:17:14.761Z,84.88
2024-01-28T04:17:48.103Z,84.70
2024-01-28T04:18:20.220Z,84.86
2024-01-28T04:18:52.450Z,84.51
2024-01-28T04:19:24.511Z,85.02
2024-01-28T04:19:56.400Z,84.99
2024-01-28T04:20:28.247Z,85.13
2024-01-28T04:21:00.059Z,85.20
2024-01-28T04:21:34.012Z,85.12
2024-01-28T04:22:08.100Z,85.00
2024-01-28T04:22:40.408Z,85.00
2024-01-28T04:23:12.315Z,85.16
2024-01-28T04:23:45.011Z,84.85
2024-01-28T04:24:16.901Z,84.89
2024-01-28T04:24:48.784Z,85.19
2024-01-28T04:25:20.673Z,85.19
2024-01-28T04:25:52.539Z,85.25
2024-01-28T04:26:24.400Z,85.45
2024-01-28T04:26:57.022Z,85.09
2024-01-28T04:27:28.817Z,85.06
2024-01-28T04:28:00.613Z,85.16
2024-01-28T04:28:32.425Z,85.14
2024-01-28T04:29:04.209Z,84.91
2024-01-28T04:29:36.174Z,85.18
2024-01-28T04:30:10.071Z,85.27
2024-01-28T04:30:42.066Z,85.11
2024-01-28T04:31:17.368Z,85.05
2024-01-28T04:31:49.159Z,85.30
2024-01-28T04:32:21.399Z,84.92
2024-01-28T04:32:53.247Z,85.13
2024-01-28T04:33:25.820Z,84.77
2024-01-28T04:33:59.059Z,84.73
2024-01-28T04:34:31.043Z,84.87
2024-01-28T04:35:03.248Z,85.01
2024-01-28T04:35:35.221Z,84.91
2024-01-28T04:36:07.198Z,84.83
2024-01-28T04:36:39.099Z,84.51
2024-01-28T04:37:11.295Z,84.73
2024-01-28T04:37:43.055Z,84.72
2024-01-28T04:38:14.916Z,84.34
2024-01-28T04:38:46.792Z,84.56
2024-01-28T04:39:19.700Z,84.30
2024-01-28T04:39:51.890Z,84.89
2024-01-28T04:40:23.842Z,84.72
2024-01-28T04:40:55.678Z,84.55
2024-01-28T04:41:27.464Z,84.40
2024-01-28T04:41:59.325Z,84.44
2024-01-28T04:42:31.254Z,84.06
2024-01-28T04:43:03.010Z,84.40
2024-01-28T04:43:34.843Z,84.47
2024-01-28T04:44:07.253Z,84.67
2024-01-28T04:44:39.037Z,84.10
2024-01-28T04:45:11.879Z,84.45
2024-01-28T04:45:43.850Z,84.72
2024-01-28T04:46:17.764Z,84.08
2024-01-28T04:46:49.853Z,84.65
2024-01-28T04:47:22.201Z,84.43
2024-01-28T04:47:54.503Z,84.54
2024-01-28T04:48:26.403Z,84.66
2024-01-28T04:48:58.649Z,84.56
2024-01-28T04:49:30.561Z,84.53
2024-01-28T04:50:02.906Z,84.52
2024-01-28T04:50:34.809Z,84.78
2024-01-28T04:51:06.721Z,84.65
2024-01-28T04:51:38.583Z,84.92
2024-01-28T04:52:10.539Z,84.82
2024-01-28T04:52:42.357Z,84.58
2024-01-28T04:53:14.272Z,84.83
2024-01-28T04:53:46.116Z,84.90
2024-01-28T04:54:18.549Z,84.76
2024-01-28T04:54:50.418Z,84.89
2024-01-28T04:55:22.305Z,84.64
2024-01-28T04:55:54.065Z,84.90
2024-01-28T04:56:26.713Z,84.88
2024-01-28T04:56:58.489Z,85.10
2024-01-28T04:57:30.287Z,85.05
2024-01-28T04:58:02.391Z,84.85
2024-01-28T04:58:34.270Z,84.87
2024-01-28T04:59:06.034Z,84.98
2024-01-28T04:59:37.830Z,85.02
2024-01-28T05:00:12.033Z,84.98
2024-01-28T05:00:44.019Z,84.93
2024-01-28T05:01:15.907Z,84.98
2024-01-28T05:01:47.827Z,85.18
2024-01-28T05:02:19.654Z,85.12
2024-01-28T05:02:51.886Z,85.20
2024-01-28T05:03:23.940Z,85.21
2024-01-28T05:03:55.981Z,85.26
2024-01-28T05:04:27.965Z,85.13
2024-01-28T05:04:59.965Z,85.26
2024-01-28T05:05:31.877Z,85.35
2024-01-28T05:06:05.719Z,85.16
2024-01-28T05:06:37.941Z,85.04
2024-01-28T05:07:10.877Z,85.07
2024-01-28T05:07:42.680Z,85.25
2024-01-28T05:08:14.498Z,84.99
2024-01-28T05:08:46.931Z,84.63
2024-01-28T05:09:18.773Z,84.68
2024-01-28T05:09:50.586Z,84.47
2024-01-28T05:10:23.023Z,84.58
2024-01-28T05:10:54.786Z,84.53
2024-01-28T05:11:27.057Z,84.26
2024-01-28T05:11:58.922Z,84.40
2024-01-28T05:12:31.888Z,84.47
2024-01-28T05:13:03.752Z,84.48
2024-01-28T05:13:35.950Z,83.95
2024-01-28T05:14:07.715Z,84.10
2024-01-28T05:14:39.511Z,83.77
2024-01-28T05:15:14.896Z,83.54
2024-01-28T05:15:47.609Z,83.54
2024-01-28T05:16:19.451Z,83.34
2024-01-28T05:16:51.309Z,83.31
2024-01-28T05:17:23.134Z,83.00
2024-01-28T05:17:55.170Z,82.72
2024-01-28T05:18:27.501Z,82.35
2024-01-28T05:18:59.610Z,82.37
2024-01-28T05:19:31.906Z,81.91
2024-01-28T05:20:04.286Z,81.94
2024-01-28T05:20:36.159Z,81.46
2024-01-28T05:21:08.066Z,81.26
2024-01-28T05:21:39.988Z,81.65
2024-01-28T05:22:11.838Z,81.55
2024-01-28T05:22:43.649Z,81.43
2024-01-28T05:23:15.551Z,81.44
2024-01-28T05:23:47.528Z,81.39
2024-01-28T05:24:19.520Z,81.39
2024-01-28T05:24:51.622Z,81.49
2024-01-28T05:25:23.534Z,81.47
2024-01-28T05:25:55.394Z,81.94
2024-01-28T05:26:27.262Z,82.08
2024-01-28T05:26:59.330Z,81.67
2024-01-28T05:27:31.272Z,81.79
2024-01-28T05:28:03.577Z,82.02
2024-01-28T05:28:36.158Z,82.31
2024-01-28T05:29:08.214Z,81.94
2024-01-28T05:29:39.994Z,82.06
2024-01-28T05:30:11.962Z,81.89
2024-01-28T05:30:44.227Z,82.38
2024-01-28T05:31:16.029Z,82.16
2024-01-28T05:31:48.175Z,82.67
2024-01-28T05:32:20.015Z,82.71
2024-01-28T05:32:51.926Z,82.99
2024-01-28T05:33:24.182Z,83.14
2024-01-28T05:33:56.903Z,82.91
2024-01-28T05:34:28.813Z,82.57
2024-01-28T05:35:05.231Z,82.62
2024-01-28T05:35:38.141Z,82.58
2024-01-28T05:36:16.324Z,83.25
2024-01-28T05:36:51.389Z,83.22
2024-01-28T05:37:23.586Z,83.14
2024-01-28T05:37:55.411Z,82.68
2024-01-28T05:38:31.867Z,83.24
2024-01-28T05:39:03.988Z,82.85
2024-01-28T05:39:37.116Z,83.47
2024-01-28T05:40:12.290Z,83.41
2024-01-28T05:40:44.169Z,83.25
2024-01-28T05:41:15.961Z,83.34
2024-01-28T05:41:50.317Z,83.41
2024-01-28T05:42:23.036Z,83.53
2024-01-28T05:42:54.885Z,83.44
2024-01-28T05:43:26.711Z,83.29
2024-01-28T05:43:58.521Z,83.27
2024-01-28T05:44:30.400Z,83.44
2024-01-28T05:45:02.360Z,83.70
2024-01-28T05:45:34.425Z,83.58
2024-01-28T05:46:06.437Z,83.60
2024-01-28T05:46:38.242Z,83.88
2024-01-28T05:47:10.137Z,83.84
2024-01-28T05:47:41.985Z,83.84
2024-01-28T05:48:14.075Z,83.82
2024-01-28T05:48:46.052Z,84.06
2024-01-28T05:49:18.160Z,84.75
2024-01-28T05:49:50.132Z,84.39
2024-01-28T05:50:22.141Z,84.41
2024-01-28T05:50:54.057Z,84.64
2024-01-28T05:51:28.131Z,84.75
2024-01-28T05:52:00.005Z,84.96
2024-01-28T05:52:31.792Z,85.09
2024-01-28T05:53:03.589Z,85.81
2024-01-28T05:53:35.482Z,85.75
2024-01-28T05:54:07.966Z,85.62
2024-01-28T05:54:43.342Z,85.81
2024-01-28T05:55:15.385Z,85.71
2024-01-28T05:55:47.190Z,85.64
2024-01-28T05:56:19.054Z,85.86
2024-01-28T05:56:50.846Z,86.14
2024-01-28T05:57:22.705Z,86.40
2024-01-28T05:57:55.075Z,86.36
2024-01-28T05:58:27.064Z,86.47
2024-01-28T05:58:58.888Z,86.20
2024-01-28T05:59:30.653Z,86.33
2024-01-28T06:00:02.464Z,86.70
2024-01-28T06:00:34.346Z,86.52
2024-01-28T06:01:07.791Z,86.89
2024-01-28T06:01:40.057Z,86.75
2024-01-28T06:02:11.931Z,86.72
2024-01-28T06:02:44.520Z,86.78
2024-01-28T06:03:16.323Z,86.70
2024-01-28T06:03:48.205Z,87.04
2024-01-28T06:04:20.188Z,87.16
2024-01-28T06:04:52.088Z,87.18
2024-01-28T06:05:24.012Z,87.15
2024-01-28T06:05:55.957Z,87.50
2024-01-28T06:06:27.912Z,87.63
2024-01-28T06:07:01.219Z,88.01
2024-01-28T06:07:33.346Z,88.07
2024-01-28T06:08:06.183Z,87.93
2024-01-28T06:08:37.989Z,87.87
2024-01-28T06:09:12.970Z,88.40
2024-01-28T06:09:45.411Z,88.54
2024-01-28T06:10:17.348Z,88.56
2024-01-28T06:10:49.123Z,88.78
2024-01-28T06:11:20.978Z,88.55
2024-01-28T06:11:52.853Z,88.97
2024-01-28T06:12:24.787Z,88.61
2024-01-28T06:12:56.957Z,88.68
2024-01-28T06:13:28.914Z,88.76
2024-01-28T06:14:00.777Z,89.05
2024-01-28T06:14:32.587Z,89.10
2024-01-28T06:15:08.337Z,89.19
2024-01-28T06:15:40.248Z,89.40
2024-01-28T06:16:12.057Z,89.32
2024-01-28T06:16:43.977Z,89.12
2024-01-28T06:17:16.252Z,89.24
2024-01-28T06:17:48.025Z,89.14
2024-01-28T06:18:20.655Z,89.26
2024-01-28T06:18:52.574Z,89.09
2024-01-28T06:19:24.433Z,89.07
2024-01-28T06:19:56.356Z,88.87
2024-01-28T06:20:28.193Z,89.05
2024-01-28T06:21:00.020Z,89.24
2024-01-28T06:21:31.996Z,89.42
2024-01-28T06:22:04.292Z,89.34
2024-01-28T06:22:36.451Z,89.50
2024-01-28T06:23:08.276Z,89.61
2024-01-28T06:23:42.305Z,89.83
2024-01-28T06:24:14.230Z,89.91
2024-01-28T06:24:47.106Z,89.96
2024-01-28T06:25:19.121Z,89.99
2024-01-28T06:25:50.926Z,90.17
2024-01-28T06:26:22.842Z,90.23
2024-01-28T06:26:55.974Z,90.04
2024-01-28T06:27:28.445Z,90.70
2024-01-28T06:28:00.370Z,90.20
2024-01-28T06:28:32.931Z,90.47
2024-01-28T06:29:04.739Z,90.27
2024-01-28T06:29:36.585Z,90.18
2024-01-28T06:30:08.754Z,90.30
2024-01-28T06:30:40.692Z,90.48
2024-01-28T06:31:13.673Z,90.61
2024-01-28T06:31:47.264Z,90.58
2024-01-28T06:32:19.338Z,90.81
2024-01-28T06:32:51.219Z,90.81
2024-01-28T06:33:23.401Z,90.45
2024-01-28T06:33:55.546Z,90.67
2024-01-28T06:34:27.403Z,90.92
2024-01-28T06:34:59.364Z,90.73
2024-01-28T06:35:31.906Z,90.84
2024-01-28T06:36:03.782Z,90.90
2024-01-28T06:36:35.698Z,90.88
2024-01-28T06:37:07.801Z,90.59
2024-01-28T06:37:40.485Z,90.92
2024-01-28T06:38:12.245Z,91.09
2024-01-28T06:38:44.034Z,90.74
2024-01-28T06:39:16.080Z,90.71
2024-01-28T06:39:52.953Z,90.92
2024-01-28T06:40:24.985Z,90.52
2024-01-28T06:40:56.863Z,90.55
2024-01-28T06:41:28.798Z,90.32
2024-01-28T06:42:00.625Z,90.38
2024-01-28T06:42:33.655Z,89.75
2024-01-28T06:43:05.613Z,90.48
2024-01-28T06:43:37.373Z,90.07
2024-01-28T06:44:09.193Z,90.01
2024-01-28T06:44:41.041Z,89.85
2024-01-28T06:45:13.030Z,89.34
2024-01-28T06:45:44.949Z,89.86
2024-01-28T06:46:17.649Z,89.65
2024-01-28T06:46:49.598Z,89.25
2024-01-28T06:47:21.411Z,89.04
2024-01-28T06:47:53.918Z,89.07
2024-01-28T06:48:25.943Z,89.29
2024-01-28T06:48:57.925Z,89.22
2024-01-28T06:49:29.828Z,88.97
2024-01-28T06:50:02.320Z,88.95
2024-01-28T06:50:34.326Z,88.93
2024-01-28T06:51:06.580Z,88.89
2024-01-28T06:51:44.040Z,88.95
2024-01-28T06:52:15.807Z,88.76
2024-01-28T06:52:49.124Z,88.31
2024-01-28T06:53:20.931Z,87.83
2024-01-28T06:53:53.370Z,88.30
2024-01-28T06:54:25.285Z,87.59
2024-01-28T06:54:57.339Z,87.65
2024-01-28T06:55:29.234Z,88.32
2024-01-28T06:56:01.171Z,88.10
2024-01-28T06:56:33.046Z,88.05